createdAt,value
2018-10-17T00:00:02.425Z,43.47
2018-10-17T00:02:31.084Z,19.30
2018-10-17T00:04:59.637Z,26.33
2018-10-17T00:07:28.087Z,49.00
2018-10-17T00:09:56.623Z,32.90
2018-10-17T00:12:25.153Z,29.33
2018-10-17T00:14:53.711Z,17.90
2018-10-17T00:17:22.220Z,22.50
2018-10-17T00:19:50.716Z,16.23
2018-10-17T00:22:19.184Z,16.20
2018-10-17T00:24:47.700Z,20.27
2018-10-17T00:27:18.234Z,15.83
2018-10-17T00:29:46.757Z,16.97
2018-10-17T00:32:15.307Z,17.57
2018-10-17T00:34:43.818Z,18.90
2018-10-17T00:37:12.481Z,14.40
2018-10-17T00:39:40.883Z,15.20
2018-10-17T00:42:09.384Z,12.27
2018-10-17T00:44:37.907Z,14.90
2018-10-17T00:47:06.647Z,14.40
2018-10-17T00:49:35.078Z,13.50
2018-10-17T00:52:03.578Z,11.57
2018-10-17T00:54:32.075Z,14.40
2018-10-17T00:57:01.611Z,14.57
2018-10-17T00:59:30.136Z,13.17
2018-10-17T01:01:58.632Z,14.70
2018-10-17T01:04:27.120Z,14.83
2018-10-17T01:06:55.648Z,20.80
2018-10-17T01:09:24.156Z,18.03
2018-10-17T01:11:52.610Z,26.20
2018-10-17T01:14:22.203Z,22.00
2018-10-17T01:16:50.792Z,25.10
2018-10-17T01:19:19.303Z,30.40
2018-10-17T01:21:47.892Z,28.53
2018-10-17T01:24:16.432Z,40.33
2018-10-17T01:26:44.900Z,40.20
2018-10-17T01:29:13.500Z,23.53
2018-10-17T01:31:41.988Z,26.93
2018-10-17T01:34:10.499Z,30.20
2018-10-17T01:36:38.988Z,26.87
2018-10-17T01:39:09.114Z,38.97
2018-10-17T01:41:37.718Z,25.00
2018-10-17T01:44:06.767Z,26.70
2018-10-17T01:46:35.406Z,29.57
2018-10-17T01:49:03.982Z,35.63
2018-10-17T01:51:32.523Z,36.10
2018-10-17T01:54:02.107Z,21.07
2018-10-17T01:56:30.639Z,67.10
2018-10-17T01:58:59.131Z,27.30
2018-10-17T02:01:27.631Z,35.93
2018-10-17T02:03:56.092Z,24.03
2018-10-17T02:06:25.464Z,27.87
2018-10-17T02:08:55.045Z,32.67
2018-10-17T02:11:23.570Z,26.73
2018-10-17T02:13:52.079Z,29.53
2018-10-17T02:16:20.585Z,29.87
2018-10-17T02:18:49.151Z,37.87
2018-10-17T02:21:17.673Z,20.20
2018-10-17T02:23:46.153Z,37.50
2018-10-17T02:26:14.659Z,31.70
2018-10-17T02:28:43.162Z,35.63
2018-10-17T02:31:11.706Z,40.80
2018-10-17T02:33:46.035Z,23.33
2018-10-17T02:36:14.556Z,36.87
2018-10-17T02:38:43.068Z,27.23
2018-10-17T02:41:12.646Z,25.30
2018-10-17T02:43:41.113Z,24.60
2018-10-17T02:46:09.637Z,39.03
2018-10-17T02:48:44.045Z,42.53
2018-10-17T02:51:12.549Z,20.30
2018-10-17T02:53:41.181Z,17.50
2018-10-17T02:56:09.709Z,39.13
2018-10-17T02:58:38.235Z,41.67
2018-10-17T03:01:06.846Z,52.40
2018-10-17T03:03:35.297Z,45.47
2018-10-17T03:06:03.842Z,65.60
2018-10-17T03:08:32.403Z,43.37
2018-10-17T03:11:00.936Z,31.80
2018-10-17T03:13:29.511Z,38.80
2018-10-17T03:15:58.028Z,26.87
2018-10-17T03:18:26.621Z,27.97
2018-10-17T03:20:55.202Z,42.23
2018-10-17T03:23:23.745Z,28.40
2018-10-17T03:25:52.245Z,45.77
2018-10-17T03:28:20.766Z,24.93
2018-10-17T03:30:49.511Z,42.43
2018-10-17T03:33:18.093Z,44.77
2018-10-17T03:35:46.642Z,25.70
2018-10-17T03:38:15.225Z,58.07
2018-10-17T03:40:43.751Z,17.83
2018-10-17T03:43:12.410Z,27.53
2018-10-17T03:45:40.898Z,22.70
2018-10-17T03:48:09.520Z,13.43
2018-10-17T03:50:38.045Z,22.40
2018-10-17T03:53:06.627Z,22.53
2018-10-17T03:55:35.099Z,21.43
2018-10-17T03:58:03.586Z,26.00
2018-10-17T04:00:32.104Z,31.33
2018-10-17T04:03:00.657Z,20.70
2018-10-17T04:05:41.588Z,18.83
2018-10-17T04:08:10.141Z,29.03
2018-10-17T04:10:38.685Z,41.10
2018-10-17T04:13:07.253Z,21.60
2018-10-17T04:15:35.841Z,28.83
2018-10-17T04:18:04.389Z,45.10
2018-10-17T04:20:32.954Z,29.13
2018-10-17T04:23:01.537Z,19.30
2018-10-17T04:25:30.094Z,26.50
2018-10-17T04:27:58.629Z,22.87
2018-10-17T04:30:29.260Z,22.80
2018-10-17T04:32:57.766Z,19.90
2018-10-17T04:35:26.306Z,20.23
2018-10-17T04:37:54.895Z,27.30
2018-10-17T04:40:23.447Z,50.17
2018-10-17T04:42:52.020Z,32.37
2018-10-17T04:45:20.545Z,35.03
2018-10-17T04:47:49.073Z,27.23
2018-10-17T04:50:17.625Z,65.10
2018-10-17T04:52:46.113Z,69.40
2018-10-17T04:55:14.771Z,60.20
2018-10-17T04:57:43.219Z,97.90
2018-10-17T05:00:12.806Z,101.77
2018-10-17T05:02:42.550Z,44.47
2018-10-17T05:05:11.323Z,36.10
2018-10-17T05:07:39.835Z,44.73
2018-10-17T05:10:09.529Z,34.03
2018-10-17T05:12:38.041Z,67.23
2018-10-17T05:15:06.771Z,57.63
2018-10-17T05:17:35.299Z,52.30
2018-10-17T05:20:04.074Z,51.00
2018-10-17T05:22:32.594Z,33.50
2018-10-17T05:25:01.161Z,38.27
2018-10-17T05:27:29.678Z,53.27
2018-10-17T05:29:58.257Z,34.43
2018-10-17T05:32:26.808Z,74.03
2018-10-17T05:34:55.361Z,53.40
2018-10-17T05:37:23.879Z,33.80
2018-10-17T05:39:52.453Z,41.87
2018-10-17T05:42:20.990Z,30.83
2018-10-17T05:44:49.523Z,24.03
2018-10-17T05:47:18.056Z,30.53
2018-10-17T05:49:46.561Z,37.43
2018-10-17T05:52:15.087Z,17.97
2018-10-17T05:54:47.064Z,37.77
2018-10-17T05:57:15.632Z,23.83
2018-10-17T05:59:44.146Z,30.20
2018-10-17T06:02:16.148Z,18.47
2018-10-17T06:04:44.633Z,39.73
2018-10-17T06:07:13.276Z,19.03
2018-10-17T06:09:41.812Z,29.17
2018-10-17T06:12:10.349Z,32.03
2018-10-17T06:14:38.937Z,31.43
2018-10-17T06:17:07.492Z,24.60
2018-10-17T06:19:36.114Z,21.10
2018-10-17T06:22:04.683Z,43.13
2018-10-17T06:24:33.191Z,49.33
2018-10-17T06:27:05.282Z,29.73
2018-10-17T06:29:33.794Z,43.50
2018-10-17T06:32:02.341Z,34.97
2018-10-17T06:34:30.906Z,32.20
2018-10-17T06:36:59.435Z,43.77
2018-10-17T06:39:27.940Z,53.90
2018-10-17T06:41:57.574Z,38.23
2018-10-17T06:44:26.166Z,47.93
2018-10-17T06:46:54.755Z,39.70
2018-10-17T06:49:23.210Z,36.70
2018-10-17T06:51:51.708Z,47.83
2018-10-17T06:54:20.220Z,51.47
2018-10-17T06:56:48.723Z,44.20
2018-10-17T06:59:17.398Z,33.33
2018-10-17T07:01:45.903Z,42.07
2018-10-17T07:04:14.439Z,52.83
2018-10-17T07:06:44.010Z,49.70
2018-10-17T07:09:12.597Z,35.70
2018-10-17T07:11:41.101Z,32.70
2018-10-17T07:14:09.612Z,28.83
2018-10-17T07:16:40.172Z,51.87
2018-10-17T07:19:08.784Z,35.40
2018-10-17T07:21:37.325Z,29.27
2018-10-17T07:24:05.914Z,52.57
2018-10-17T07:26:34.486Z,38.97
2018-10-17T07:29:03.068Z,22.40
2018-10-17T07:31:31.528Z,26.63
2018-10-17T07:34:00.098Z,41.27
2018-10-17T07:36:28.657Z,31.97
2018-10-17T07:38:57.229Z,28.23
2018-10-17T07:41:37.810Z,32.03
2018-10-17T07:44:06.566Z,27.47
2018-10-17T07:46:35.223Z,37.93
2018-10-17T07:49:03.781Z,32.50
2018-10-17T07:51:39.902Z,27.87
2018-10-17T07:54:08.505Z,25.87
2018-10-17T07:56:37.007Z,37.77
2018-10-17T07:59:05.817Z,27.73
2018-10-17T08:01:34.324Z,28.50
2018-10-17T08:04:10.025Z,25.33
2018-10-17T08:06:55.077Z,25.70
2018-10-17T08:09:25.739Z,22.97
2018-10-17T08:11:54.381Z,26.00
2018-10-17T08:14:22.862Z,30.67
2018-10-17T08:17:05.469Z,28.07
2018-10-17T08:19:34.785Z,27.37
2018-10-17T08:22:03.314Z,22.30
2018-10-17T08:24:31.832Z,27.57
2018-10-17T08:27:00.333Z,21.63
2018-10-17T08:29:28.911Z,22.53
2018-10-17T08:31:57.413Z,20.03
2018-10-17T08:34:25.957Z,23.27
2018-10-17T08:36:54.650Z,21.90
2018-10-17T08:39:23.038Z,21.10
2018-10-17T08:41:51.557Z,23.57
2018-10-17T08:44:20.142Z,23.77
2018-10-17T08:46:48.691Z,22.50
2018-10-17T08:49:17.203Z,20.93
2018-10-17T08:51:45.749Z,21.83
2018-10-17T08:54:14.328Z,24.90
2018-10-17T08:56:42.866Z,23.67
2018-10-17T08:59:11.458Z,21.03
2018-10-17T09:01:40.087Z,27.30
2018-10-17T09:04:08.590Z,24.60
2018-10-17T09:06:37.146Z,24.50
2018-10-17T09:09:09.305Z,26.40
2018-10-17T09:11:38.193Z,36.57
2018-10-17T09:14:07.906Z,30.90
2018-10-17T09:16:36.462Z,29.63
2018-10-17T09:19:05.138Z,34.23
2018-10-17T09:21:34.130Z,31.60
2018-10-17T09:24:02.345Z,35.97
2018-10-17T09:26:30.821Z,28.90
2018-10-17T09:28:59.342Z,32.67
2018-10-17T09:31:28.045Z,32.87
2018-10-17T09:33:56.744Z,33.07
2018-10-17T09:36:25.529Z,41.23
2018-10-17T09:38:54.082Z,38.90
2018-10-17T09:41:22.689Z,41.43
2018-10-17T09:43:51.210Z,42.23
2018-10-17T09:46:19.743Z,42.30
2018-10-17T09:49:10.160Z,35.40
2018-10-17T09:51:40.945Z,36.47
2018-10-17T09:54:09.575Z,43.73
2018-10-17T09:56:38.137Z,36.90
2018-10-17T09:59:06.647Z,34.50
2018-10-17T10:01:40.402Z,28.50
2018-10-17T10:04:08.941Z,41.03
2018-10-17T10:06:37.480Z,32.43
2018-10-17T10:09:08.005Z,39.47
2018-10-17T10:11:36.580Z,41.53
2018-10-17T10:14:05.174Z,30.57
2018-10-17T10:16:33.710Z,33.10
2018-10-17T10:19:02.289Z,28.77
2018-10-17T10:21:30.973Z,29.70
2018-10-17T10:24:00.076Z,35.27
2018-10-17T10:26:34.825Z,34.10
2018-10-17T10:29:03.374Z,31.63
2018-10-17T10:31:31.887Z,32.60
2018-10-17T10:34:00.425Z,38.50
2018-10-17T10:36:28.956Z,27.93
2018-10-17T10:38:57.494Z,31.53
2018-10-17T10:41:26.014Z,37.10
2018-10-17T10:43:54.557Z,26.43
2018-10-17T10:46:23.124Z,24.23
2018-10-17T10:48:51.663Z,28.37
2018-10-17T10:51:20.275Z,32.70
2018-10-17T10:53:48.709Z,29.57
2018-10-17T10:56:17.294Z,22.30
2018-10-17T10:58:51.457Z,31.83
2018-10-17T11:01:20.006Z,25.00
2018-10-17T11:03:48.578Z,20.47
2018-10-17T11:06:17.118Z,20.23
2018-10-17T11:08:45.702Z,20.73
2018-10-17T11:11:14.289Z,21.10
2018-10-17T11:13:48.219Z,27.10
2018-10-17T11:16:16.736Z,23.67
2018-10-17T11:18:45.293Z,19.53
2018-10-17T11:21:13.874Z,23.60
2018-10-17T11:23:42.370Z,25.23
2018-10-17T11:26:10.900Z,20.20
2018-10-17T11:28:39.463Z,29.70
2018-10-17T11:31:07.995Z,18.30
2018-10-17T11:33:36.549Z,19.17
2018-10-17T11:36:05.105Z,19.70
2018-10-17T11:38:33.652Z,31.13
2018-10-17T11:41:02.250Z,23.50
2018-10-17T11:43:30.815Z,19.80
2018-10-17T11:45:59.367Z,21.03
2018-10-17T11:48:27.869Z,17.37
2018-10-17T11:50:56.467Z,18.50
2018-10-17T11:53:24.999Z,17.70
2018-10-17T11:55:53.556Z,17.70
2018-10-17T11:58:22.085Z,21.40
2018-10-17T12:00:50.659Z,26.07
2018-10-17T12:03:19.272Z,17.67
2018-10-17T12:05:47.913Z,14.30
2018-10-17T12:08:23.075Z,17.60
2018-10-17T12:10:51.661Z,20.40
2018-10-17T12:13:20.200Z,20.33
2018-10-17T12:15:48.724Z,20.10
2018-10-17T12:18:17.291Z,15.00
2018-10-17T12:20:45.893Z,23.43
2018-10-17T12:23:14.395Z,15.07
2018-10-17T12:25:42.982Z,18.07
2018-10-17T12:28:11.692Z,24.97
2018-10-17T12:30:40.112Z,18.93
2018-10-17T12:33:08.634Z,17.53
2018-10-17T12:35:37.218Z,20.03
2018-10-17T12:38:09.426Z,15.80
2018-10-17T12:40:38.091Z,14.53
2018-10-17T12:43:06.633Z,15.47
2018-10-17T12:45:35.185Z,13.23
2018-10-17T12:48:03.781Z,18.60
2018-10-17T12:50:32.351Z,13.73
2018-10-17T12:53:01.097Z,16.70
2018-10-17T12:55:29.457Z,19.50
2018-10-17T12:57:57.974Z,12.67
2018-10-17T13:00:26.519Z,12.77
2018-10-17T13:02:55.065Z,15.10
2018-10-17T13:05:23.609Z,12.30
2018-10-17T13:07:52.138Z,16.00
2018-10-17T13:10:20.660Z,13.33
2018-10-17T13:12:49.175Z,13.63
2018-10-17T13:15:17.702Z,14.10
2018-10-17T13:17:46.565Z,13.97
2018-10-17T13:20:15.158Z,15.53
2018-10-17T13:22:43.735Z,14.20
2018-10-17T13:25:12.259Z,11.93
2018-10-17T13:27:41.825Z,15.90
2018-10-17T13:30:10.380Z,15.37
2018-10-17T13:32:38.930Z,12.30
2018-10-17T13:35:07.597Z,10.73
2018-10-17T13:37:36.105Z,14.07
2018-10-17T13:40:04.741Z,14.07
2018-10-17T13:42:33.352Z,16.90
2018-10-17T13:45:14.077Z,12.40
2018-10-17T13:47:42.629Z,15.63
2018-10-17T13:50:11.229Z,17.00
2018-10-17T13:52:39.763Z,12.80
2018-10-17T13:55:08.399Z,11.23
2018-10-17T13:57:37.019Z,17.37
2018-10-17T14:00:06.777Z,10.03
2018-10-17T14:02:35.305Z,10.20
2018-10-17T14:05:03.918Z,10.40
2018-10-17T14:07:32.462Z,9.83
2018-10-17T14:10:00.990Z,15.83
2018-10-17T14:12:29.530Z,12.43
2018-10-17T14:14:59.178Z,9.47
2018-10-17T14:17:27.694Z,11.23
2018-10-17T14:19:56.256Z,14.93
2018-10-17T14:25:21.995Z,9.20
2018-10-17T14:27:50.538Z,9.93
2018-10-17T14:30:19.112Z,8.00
2018-10-17T14:32:47.663Z,14.57
2018-10-17T14:35:32.715Z,8.60
2018-10-17T14:38:01.501Z,9.33
2018-10-17T14:40:29.954Z,15.53
2018-10-17T14:43:10.446Z,8.43
2018-10-17T14:45:39.017Z,12.53
2018-10-17T14:48:08.319Z,10.70
2018-10-17T14:50:36.950Z,8.30
2018-10-17T14:53:23.827Z,11.63
2018-10-17T14:55:55.404Z,12.10
2018-10-17T14:58:23.928Z,13.10
2018-10-17T15:00:52.548Z,10.20
2018-10-17T15:03:27.342Z,15.33
2018-10-17T15:05:55.987Z,13.97
2018-10-17T15:08:24.471Z,17.73
2018-10-17T15:10:54.408Z,23.43
2018-10-17T15:13:22.665Z,14.27
2018-10-17T15:15:51.218Z,13.60
2018-10-17T15:18:19.935Z,11.33
2018-10-17T15:20:48.465Z,13.40
2018-10-17T15:23:17.313Z,13.23
2018-10-17T15:25:45.825Z,10.97
2018-10-17T15:28:14.371Z,23.03
2018-10-17T15:30:42.922Z,26.13
2018-10-17T15:33:11.499Z,18.20
2018-10-17T15:35:40.360Z,11.57
2018-10-17T15:38:08.884Z,11.93
2018-10-17T15:40:37.432Z,13.97
2018-10-17T15:43:06.060Z,9.63
2018-10-17T15:45:34.597Z,13.87
2018-10-17T15:48:03.090Z,15.53
2018-10-17T15:50:31.646Z,16.70
2018-10-17T15:53:00.171Z,10.57
2018-10-17T15:55:28.689Z,14.93
2018-10-17T15:57:57.211Z,18.97
2018-10-17T16:00:25.737Z,17.97
2018-10-17T16:02:54.224Z,16.50
2018-10-17T16:05:22.774Z,10.53
2018-10-17T16:07:51.359Z,21.13
2018-10-17T16:10:20.063Z,14.03
2018-10-17T16:12:48.634Z,11.07
2018-10-17T16:15:17.149Z,13.87
2018-10-17T16:17:45.665Z,19.13
2018-10-17T16:20:14.234Z,10.90
2018-10-17T16:22:42.885Z,18.87
2018-10-17T16:25:11.384Z,14.70
2018-10-17T16:27:39.971Z,14.70
2018-10-17T16:30:10.302Z,13.63
2018-10-17T16:32:42.292Z,19.00
2018-10-17T16:35:10.888Z,35.37
2018-10-17T16:37:39.716Z,18.67
2018-10-17T16:40:09.118Z,19.30
2018-10-17T16:42:37.659Z,25.80
2018-10-17T16:45:07.413Z,20.53
2018-10-17T16:47:36.000Z,13.53
2018-10-17T16:50:05.049Z,15.40
2018-10-17T16:52:33.624Z,19.23
2018-10-17T16:55:02.232Z,17.07
2018-10-17T16:57:30.723Z,18.60
2018-10-17T16:59:59.301Z,15.13
2018-10-17T17:02:27.830Z,22.17
2018-10-17T17:04:56.355Z,19.47
2018-10-17T17:07:24.989Z,18.63
2018-10-17T17:09:53.514Z,16.17
2018-10-17T17:12:22.028Z,20.40
2018-10-17T17:14:50.688Z,25.00
2018-10-17T17:17:20.298Z,16.90
2018-10-17T17:19:48.808Z,20.77
2018-10-17T17:22:17.321Z,27.13
2018-10-17T17:24:46.477Z,20.20
2018-10-17T17:27:18.276Z,20.67
2018-10-17T17:29:46.843Z,19.83
2018-10-17T17:32:15.301Z,15.97
2018-10-17T17:34:43.842Z,19.77
2018-10-17T17:37:12.425Z,16.53
2018-10-17T17:39:40.981Z,20.57
2018-10-17T17:42:09.584Z,20.33
2018-10-17T17:44:38.185Z,20.50
2018-10-17T17:47:07.234Z,19.83
2018-10-17T17:49:35.811Z,19.90
2018-10-17T17:52:04.536Z,15.53
2018-10-17T17:54:33.090Z,26.17
2018-10-17T17:57:01.657Z,18.97
2018-10-17T17:59:30.242Z,20.97
2018-10-17T18:01:58.805Z,17.57
2018-10-17T18:04:27.422Z,19.23
2018-10-17T18:06:59.165Z,28.30
2018-10-17T18:09:27.735Z,23.53
2018-10-17T18:11:56.257Z,20.57
2018-10-17T18:14:24.894Z,18.63
2018-10-17T18:16:53.346Z,16.83
2018-10-17T18:19:22.002Z,18.37
2018-10-17T18:21:50.805Z,26.07
2018-10-17T18:24:19.583Z,31.00
2018-10-17T18:26:48.407Z,28.13
2018-10-17T18:29:17.249Z,18.70
2018-10-17T18:31:45.963Z,25.13
2018-10-17T18:34:14.767Z,18.20
2018-10-17T18:36:44.571Z,25.53
2018-10-17T18:39:13.362Z,22.53
2018-10-17T18:41:42.037Z,23.93
2018-10-17T18:44:10.577Z,26.83
2018-10-17T18:46:39.107Z,21.53
2018-10-17T18:49:07.654Z,26.37
2018-10-17T18:51:36.213Z,21.90
2018-10-17T18:54:05.212Z,22.13
2018-10-17T18:56:33.784Z,24.00
2018-10-17T18:59:02.385Z,20.03
2018-10-17T19:01:31.015Z,24.60
2018-10-17T19:03:59.582Z,23.70
2018-10-17T19:06:28.139Z,23.63
2018-10-17T19:09:02.341Z,23.10
2018-10-17T19:11:30.868Z,22.47
2018-10-17T19:13:59.482Z,24.60
2018-10-17T19:16:28.243Z,23.07
2018-10-17T19:19:10.490Z,22.10
2018-10-17T19:21:40.175Z,27.63
2018-10-17T19:24:15.242Z,26.03
2018-10-17T19:26:45.895Z,23.90
2018-10-17T19:29:15.480Z,25.50
2018-10-17T19:31:44.042Z,34.33
2018-10-17T19:34:12.574Z,27.77
2018-10-17T19:36:41.145Z,29.80
2018-10-17T19:39:11.332Z,30.80
2018-10-17T19:41:41.082Z,29.53
2018-10-17T19:44:09.649Z,27.87
2018-10-17T19:46:38.292Z,35.77
2018-10-17T19:49:13.036Z,34.70
2018-10-17T19:51:41.585Z,31.87
2018-10-17T19:54:10.313Z,33.50
2018-10-17T19:56:45.535Z,33.07
2018-10-17T19:59:14.046Z,29.80
2018-10-17T20:01:50.912Z,40.37
2018-10-17T20:04:19.442Z,33.33
2018-10-17T20:06:47.988Z,31.23
2018-10-17T20:09:16.642Z,29.97
2018-10-17T20:11:47.225Z,30.40
2018-10-17T20:14:26.651Z,39.80
2018-10-17T20:16:55.129Z,42.87
2018-10-17T20:19:34.302Z,42.80
2018-10-17T20:22:09.423Z,36.80
2018-10-17T20:24:37.995Z,31.93
2018-10-17T20:27:06.951Z,44.87
2018-10-17T20:29:35.436Z,34.10
2018-10-17T20:32:03.976Z,34.20
2018-10-17T20:34:44.450Z,42.23
2018-10-17T20:37:12.976Z,46.30
2018-10-17T20:39:41.492Z,31.73
2018-10-17T20:42:10.100Z,41.10
2018-10-17T20:44:48.665Z,35.67
2018-10-17T20:47:17.211Z,32.27
2018-10-17T20:49:45.758Z,29.57
2018-10-17T20:52:14.343Z,33.50
2018-10-17T20:54:42.875Z,29.53
2018-10-17T20:57:11.421Z,31.00
2018-10-17T20:59:39.919Z,32.13
2018-10-17T21:02:08.463Z,32.87
2018-10-17T21:04:37.127Z,30.70
2018-10-17T21:07:05.838Z,26.37
2018-10-17T21:09:34.394Z,31.50
2018-10-17T21:12:03.007Z,25.67
2018-10-17T21:14:31.527Z,36.27
2018-10-17T21:17:00.074Z,29.37
2018-10-17T21:19:32.986Z,25.30
2018-10-17T21:22:01.557Z,30.23
2018-10-17T21:24:30.300Z,27.83
2018-10-17T21:27:09.626Z,30.97
2018-10-17T21:29:38.176Z,26.17
2018-10-17T21:32:06.932Z,26.93
2018-10-17T21:34:35.344Z,35.90
2018-10-17T21:37:08.683Z,25.13
2018-10-17T21:39:37.232Z,29.53
2018-10-17T21:42:05.753Z,26.10
2018-10-17T21:44:34.312Z,29.40
2018-10-17T21:47:02.837Z,28.20
2018-10-17T21:49:33.368Z,22.13
2018-10-17T21:52:01.868Z,30.07
2018-10-17T21:54:30.380Z,28.13
2018-10-17T21:57:04.957Z,26.30
2018-10-17T21:59:33.510Z,24.90
2018-10-17T22:02:02.029Z,25.63
2018-10-17T22:04:30.595Z,26.90
2018-10-17T22:09:57.788Z,26.83
2018-10-17T22:12:26.210Z,21.17
2018-10-17T22:14:54.764Z,23.80
2018-10-17T22:17:30.496Z,23.07
2018-10-17T22:19:59.009Z,24.10
2018-10-17T22:22:27.875Z,26.13
2018-10-17T22:24:56.973Z,27.50
2018-10-17T22:27:25.558Z,30.33
2018-10-17T22:29:55.288Z,21.10
2018-10-17T22:32:23.705Z,34.90
2018-10-17T22:34:52.254Z,24.23
2018-10-17T22:37:20.825Z,26.53
2018-10-17T22:39:49.345Z,24.00
2018-10-17T22:42:23.550Z,30.30
2018-10-17T22:44:52.120Z,28.10
2018-10-17T22:47:20.675Z,30.40
2018-10-17T22:49:49.197Z,30.00
2018-10-17T22:52:29.458Z,26.43
2018-10-17T22:54:57.980Z,24.63
2018-10-17T22:57:26.513Z,23.43
2018-10-17T22:59:55.032Z,28.73
2018-10-17T23:02:23.541Z,22.63
2018-10-17T23:04:52.056Z,24.63
2018-10-17T23:07:20.560Z,24.20
2018-10-17T23:09:49.105Z,22.83
2018-10-17T23:12:17.640Z,26.47
2018-10-17T23:14:46.157Z,20.17
2018-10-17T23:17:14.693Z,29.07
2018-10-17T23:19:43.201Z,31.63
2018-10-17T23:22:11.745Z,24.63
2018-10-17T23:24:40.257Z,25.73
2018-10-17T23:27:08.797Z,19.93
2018-10-17T23:29:37.302Z,18.80
2018-10-17T23:32:06.083Z,25.40
2018-10-17T23:34:34.630Z,21.10
2018-10-17T23:37:03.193Z,19.80
2018-10-17T23:39:31.711Z,28.90
2018-10-17T23:42:00.312Z,23.07
2018-10-17T23:44:28.790Z,20.00
2018-10-17T23:47:05.446Z,25.50
2018-10-17T23:49:34.137Z,22.90
2018-10-17T23:52:02.700Z,22.67
2018-10-17T23:54:31.335Z,31.00
2018-10-17T23:56:59.911Z,17.13
2018-10-17T23:59:28.505Z,23.87
